Time;durP1;ratioP1;P1;durP2;ratioP2;P2;SDS_P1;SDS_P2;PMS_P1;PMS_P2;Temp;Humidity;BMP_temperature;BMP_pressure;BME280_temperature;BME280_humidity;BME280_pressure;Samples;Min_cycle;Max_cycle;Signal;HPM_P1;HPM_P2
2022/01/06 00:02:01;;;;;;;12.75;3.35;;;;;;;;;;5034418;28;20052;-81
2022/01/06 00:04:27;;;;;;;10.75;2.35;;;;;;;;;;5035309;28;20041;-81
2022/01/06 00:06:53;;;;;;;12.88;2.92;;;;;;;;;;5035423;28;20401;-81
2022/01/06 00:09:21;;;;;;;16.13;3.97;;;;;;;;;;5034812;28;20040;-81
2022/01/06 00:11:47;;;;;;;13.48;4.25;;;;;;;;;;5032499;28;20135;-81
2022/01/06 00:14:20;;;;;;;16.63;3.78;;;;;;;;;;5035310;28;20530;-81
2022/01/06 00:24:48;;;;;;;20.85;5.13;;;;;;;;;;5051005;28;20392;-81
2022/01/06 00:27:14;;;;;;;22.77;5.13;;;;;;;;;;5049081;28;20045;-81
2022/01/06 00:29:41;;;;;;;21.00;4.60;;;;;;;;;;5034207;28;20037;-81
2022/01/06 00:32:07;;;;;;;23.63;5.35;;;;;;;;;;5033734;28;20080;-81
2022/01/06 00:34:33;;;;;;;18.52;4.35;;;;;;;;;;5046023;28;20077;-81
2022/01/06 00:37:01;;;;;;;18.10;5.03;;;;;;;;;;5034467;28;20065;-81
2022/01/06 00:39:28;;;;;;;20.15;4.45;;;;;;;;;;5031574;28;20059;-81
2022/01/06 00:41:59;;;;;;;15.27;4.28;;;;;;;;;;5051350;28;20084;-81
2022/01/06 00:44:25;;;;;;;19.25;4.13;;;;;;;;;;5032526;28;20049;-81
2022/01/06 00:46:52;;;;;;;21.02;4.63;;;;;;;;;;5048632;28;20041;-81
2022/01/06 00:49:18;;;;;;;19.67;4.18;;;;;;;;;;5034210;28;20041;-81
2022/01/06 00:51:47;;;;;;;19.92;4.45;;;;;;;;;;5031399;28;20049;-81
2022/01/06 00:54:13;;;;;;;16.08;4.80;;;;;;;;;;5050585;28;20045;-81
2022/01/06 00:56:39;;;;;;;20.02;4.35;;;;;;;;;;5050285;28;20542;-81
2022/01/06 00:59:05;;;;;;;20.85;4.95;;;;;;;;;;5033523;28;20052;-81
2022/01/06 01:01:32;;;;;;;19.02;4.78;;;;;;;;;;5030894;28;20048;-81
2022/01/06 01:03:58;;;;;;;20.85;4.65;;;;;;;;;;5034586;28;20420;-80
2022/01/06 01:06:24;;;;;;;23.05;5.20;;;;;;;;;;5032194;28;20038;-81
2022/01/06 01:08:50;;;;;;;21.00;4.93;;;;;;;;;;5049532;28;20087;-81
2022/01/06 01:11:16;;;;;;;28.20;5.68;;;;;;;;;;5033027;28;20377;-81
2022/01/06 01:13:56;;;;;;;18.65;4.72;;;;;;;;;;5033317;28;20033;-80
2022/01/06 01:16:30;;;;;;;22.10;5.00;;;;;;;;;;5032083;28;20496;-81
2022/01/06 01:18:57;;;;;;;20.77;4.78;;;;;;;;;;5033812;28;20087;-81
2022/01/06 01:21:26;;;;;;;24.02;4.88;;;;;;;;;;5032260;28;20099;-81
2022/01/06 01:23:53;;;;;;;13.98;4.25;;;;;;;;;;5033938;28;20124;-80
2022/01/06 01:26:19;;;;;;;25.73;5.40;;;;;;;;;;5050512;28;20448;-81
2022/01/06 01:28:46;;;;;;;15.45;3.60;;;;;;;;;;5032916;28;20041;-81
2022/01/06 01:31:37;;;;;;;14.35;4.20;;;;;;;;;;5050063;28;20128;-80
2022/01/06 01:34:06;;;;;;;12.75;3.72;;;;;;;;;;5050345;28;20091;-81
2022/01/06 01:36:32;;;;;;;16.20;3.97;;;;;;;;;;5031634;28;20053;-81
2022/01/06 01:38:58;;;;;;;13.50;3.67;;;;;;;;;;5048581;28;20182;-81
2022/01/06 01:41:24;;;;;;;14.93;3.80;;;;;;;;;;5049164;28;20556;-81
2022/01/06 01:43:53;;;;;;;14.93;3.92;;;;;;;;;;5029431;28;20055;-81
2022/01/06 01:46:27;;;;;;;9.98;3.45;;;;;;;;;;5049645;28;20492;-81
2022/01/06 01:49:13;;;;;;;;;;;;;;;;;;5051950;28;20041;-81
2022/01/06 01:51:39;;;;;;;13.85;3.65;;;;;;;;;;5050104;28;19982;-81
2022/01/06 01:54:05;;;;;;;19.75;4.75;;;;;;;;;;5057977;28;20048;-81
2022/01/06 01:56:31;;;;;;;23.60;4.65;;;;;;;;;;5061852;28;20044;-81
2022/01/06 01:58:57;;;;;;;20.25;4.78;;;;;;;;;;5029144;28;20053;-81
2022/01/06 02:01:23;;;;;;;18.17;4.30;;;;;;;;;;5050475;28;20037;-81
2022/01/06 02:03:49;;;;;;;13.57;4.40;;;;;;;;;;5049513;28;20076;-81
2022/01/06 02:06:15;;;;;;;21.85;5.18;;;;;;;;;;5050240;28;20503;-81
2022/01/06 02:08:41;;;;;;;22.20;4.28;;;;;;;;;;5031942;28;20048;-81
2022/01/06 02:11:07;;;;;;;19.05;4.65;;;;;;;;;;5049981;28;20051;-81
2022/01/06 02:13:33;;;;;;;19.95;4.70;;;;;;;;;;5049396;28;20543;-81
2022/01/06 02:16:02;;;;;;;16.42;4.38;;;;;;;;;;5051117;28;20037;-81
2022/01/06 02:18:28;;;;;;;19.92;4.45;;;;;;;;;;5048521;28;20114;-81
2022/01/06 02:20:54;;;;;;;17.70;4.80;;;;;;;;;;5032768;28;20053;-81
2022/01/06 02:23:21;;;;;;;18.48;4.45;;;;;;;;;;5048298;28;20048;-81
2022/01/06 02:25:48;;;;;;;17.75;4.78;;;;;;;;;;5032544;28;20091;-81
2022/01/06 02:28:16;;;;;;;22.20;4.85;;;;;;;;;;5028610;28;20049;-81
2022/01/06 02:30:44;;;;;;;15.52;4.05;;;;;;;;;;5049520;28;20497;-81
2022/01/06 02:33:10;;;;;;;19.05;4.05;;;;;;;;;;5049230;28;20061;-81
2022/01/06 02:35:38;;;;;;;19.88;4.20;;;;;;;;;;5048040;28;20052;-81
2022/01/06 02:38:04;;;;;;;18.13;3.88;;;;;;;;;;5033711;28;20041;-81
2022/01/06 02:40:30;;;;;;;13.55;3.88;;;;;;;;;;5047032;28;20071;-81
2022/01/06 02:42:58;;;;;;;21.70;4.70;;;;;;;;;;5033258;28;20048;-81
2022/01/06 02:45:26;;;;;;;15.30;4.38;;;;;;;;;;5031671;28;20052;-81
2022/01/06 02:47:53;;;;;;;16.90;3.97;;;;;;;;;;5045563;28;20037;-80
2022/01/06 02:50:19;;;;;;;12.98;3.70;;;;;;;;;;5049679;28;20562;-80
2022/01/06 02:52:45;;;;;;;20.83;4.15;;;;;;;;;;5048931;28;20544;-81
2022/01/06 02:55:12;;;;;;;21.15;4.63;;;;;;;;;;5046267;28;20128;-80
2022/01/06 02:57:38;;;;;;;15.55;4.15;;;;;;;;;;5046684;28;20061;-80
2022/01/06 03:00:05;;;;;;;17.17;3.90;;;;;;;;;;5030715;28;20052;-81
2022/01/06 03:02:32;;;;;;;16.65;3.95;;;;;;;;;;5030062;28;20109;-80
2022/01/06 03:04:58;;;;;;;12.80;3.55;;;;;;;;;;5049137;28;20049;-81
2022/01/06 03:07:26;;;;;;;14.50;3.97;;;;;;;;;;5029715;28;20040;-80
2022/01/06 03:09:55;;;;;;;14.63;3.80;;;;;;;;;;5031197;28;20064;-81
2022/01/06 03:12:26;;;;;;;16.67;3.53;;;;;;;;;;5049234;28;20063;-81
2022/01/06 03:14:52;;;;;;;18.35;3.58;;;;;;;;;;5031519;28;20044;-81
2022/01/06 03:17:18;;;;;;;15.45;3.63;;;;;;;;;;5031953;28;20052;-81
2022/01/06 03:19:44;;;;;;;12.50;3.95;;;;;;;;;;5026759;28;20037;-81
2022/01/06 03:22:10;;;;;;;12.77;3.42;;;;;;;;;;5025934;28;20485;-80
2022/01/06 03:24:36;;;;;;;10.90;3.50;;;;;;;;;;5031819;28;20041;-81
2022/01/06 03:27:03;;;;;;;18.88;3.90;;;;;;;;;;5037622;28;20045;-81
2022/01/06 03:29:29;;;;;;;14.45;4.38;;;;;;;;;;5028161;28;20048;-81
2022/01/06 03:31:55;;;;;;;21.23;4.20;;;;;;;;;;5031566;28;20041;-80
2022/01/06 03:34:21;;;;;;;17.02;3.75;;;;;;;;;;5035799;28;20053;-81
2022/01/06 03:36:47;;;;;;;16.10;3.60;;;;;;;;;;5033871;28;20561;-80
2022/01/06 03:39:13;;;;;;;13.05;3.30;;;;;;;;;;5053769;28;20128;-81
2022/01/06 03:41:39;;;;;;;18.17;4.00;;;;;;;;;;5035305;28;20428;-81
2022/01/06 03:44:05;;;;;;;16.35;3.50;;;;;;;;;;5035761;28;20096;-81
2022/01/06 03:46:31;;;;;;;17.13;3.60;;;;;;;;;;5033856;28;20494;-80
2022/01/06 03:48:57;;;;;;;12.40;3.28;;;;;;;;;;5035514;28;20065;-81
2022/01/06 03:51:23;;;;;;;10.77;3.15;;;;;;;;;;5035256;28;20079;-80
2022/01/06 03:53:50;;;;;;;16.23;4.15;;;;;;;;;;5035509;28;20132;-81
2022/01/06 03:56:16;;;;;;;14.23;3.70;;;;;;;;;;5032598;28;20052;-81
2022/01/06 03:58:42;;;;;;;16.08;3.92;;;;;;;;;;5052938;28;20508;-81
2022/01/06 04:01:08;;;;;;;16.50;3.42;;;;;;;;;;5052549;28;20053;-81
2022/01/06 04:03:34;;;;;;;12.48;3.35;;;;;;;;;;5032336;28;20052;-80
2022/01/06 04:06:00;;;;;;;12.10;3.13;;;;;;;;;;5035790;28;20082;-81
2022/01/06 04:08:26;;;;;;;15.48;3.70;;;;;;;;;;5052731;28;20041;-80
2022/01/06 04:10:52;;;;;;;16.60;3.80;;;;;;;;;;5033946;28;20128;-81
2022/01/06 04:13:18;;;;;;;17.13;3.58;;;;;;;;;;5053652;28;20045;-81
2022/01/06 04:15:45;;;;;;;10.50;3.50;;;;;;;;;;5052921;28;20508;-80
2022/01/06 04:18:11;;;;;;;11.63;3.47;;;;;;;;;;5052397;28;20489;-81
2022/01/06 04:20:37;;;;;;;11.40;3.33;;;;;;;;;;5031248;28;20044;-80
2022/01/06 04:23:03;;;;;;;16.80;3.75;;;;;;;;;;5034250;28;20033;-80
2022/01/06 04:25:29;;;;;;;12.98;3.70;;;;;;;;;;5031924;28;20049;-80
2022/01/06 04:27:55;;;;;;;13.00;3.78;;;;;;;;;;5053264;28;20484;-81
2022/01/06 04:30:21;;;;;;;14.50;3.33;;;;;;;;;;5032691;28;20051;-81
2022/01/06 04:32:47;;;;;;;14.68;3.40;;;;;;;;;;5050745;28;20060;-81
2022/01/06 04:35:13;;;;;;;17.13;4.22;;;;;;;;;;5052294;28;20053;-81
2022/01/06 04:37:39;;;;;;;16.88;4.15;;;;;;;;;;5033362;28;20052;-81
2022/01/06 04:40:08;;;;;;;11.85;3.65;;;;;;;;;;5050187;28;21306;-81
2022/01/06 04:42:35;;;;;;;15.77;4.00;;;;;;;;;;5033113;28;20049;-80
2022/01/06 04:45:01;;;;;;;11.25;3.55;;;;;;;;;;5033203;28;20052;-81
2022/01/06 04:47:27;;;;;;;15.52;3.22;;;;;;;;;;5033129;28;20079;-81
2022/01/06 04:49:53;;;;;;;12.23;2.92;;;;;;;;;;5052414;28;20044;-81
2022/01/06 04:52:19;;;;;;;13.18;3.50;;;;;;;;;;5032958;28;20040;-81
2022/01/06 04:54:45;;;;;;;13.13;3.58;;;;;;;;;;5032914;28;20044;-81
2022/01/06 04:57:11;;;;;;;12.80;3.10;;;;;;;;;;5033393;28;20049;-81
2022/01/06 04:59:37;;;;;;;12.75;3.95;;;;;;;;;;5034614;28;20086;-81
2022/01/06 05:02:04;;;;;;;13.88;3.58;;;;;;;;;;5029585;28;20527;-81
2022/01/06 05:04:30;;;;;;;13.30;3.30;;;;;;;;;;5051707;28;20149;-80
2022/01/06 05:06:56;;;;;;;14.77;3.47;;;;;;;;;;5033592;28;20124;-80
2022/01/06 05:09:22;;;;;;;17.27;4.18;;;;;;;;;;5033842;28;20051;-81
2022/01/06 05:11:48;;;;;;;12.40;3.00;;;;;;;;;;5035468;28;20049;-81
2022/01/06 05:14:14;;;;;;;13.82;3.55;;;;;;;;;;5033282;28;20180;-81
2022/01/06 05:16:40;;;;;;;8.95;3.15;;;;;;;;;;5032673;28;20116;-81
2022/01/06 05:19:06;;;;;;;13.57;3.30;;;;;;;;;;5032191;28;20047;-81
2022/01/06 05:21:33;;;;;;;14.93;3.45;;;;;;;;;;5033195;28;20040;-81
2022/01/06 05:23:59;;;;;;;12.43;3.30;;;;;;;;;;5032089;28;20059;-81
2022/01/06 05:26:26;;;;;;;11.20;3.55;;;;;;;;;;5051281;28;20160;-81
2022/01/06 05:28:52;;;;;;;9.32;3.03;;;;;;;;;;5031637;28;20374;-81
2022/01/06 05:31:18;;;;;;;14.50;3.55;;;;;;;;;;5052038;28;20059;-81
2022/01/06 05:33:44;;;;;;;13.52;3.45;;;;;;;;;;5026399;28;20045;-81
2022/01/06 05:36:10;;;;;;;10.32;3.47;;;;;;;;;;5029225;28;20096;-81
2022/01/06 05:38:36;;;;;;;13.98;3.13;;;;;;;;;;5032515;28;20103;-81
2022/01/06 05:41:04;;;;;;;15.38;3.70;;;;;;;;;;5029768;28;20041;-81
2022/01/06 05:43:30;;;;;;;10.00;3.08;;;;;;;;;;5011778;28;20061;-81
2022/01/06 05:45:57;;;;;;;13.57;3.65;;;;;;;;;;5029965;28;20191;-81
2022/01/06 05:48:24;;;;;;;9.75;2.83;;;;;;;;;;5027754;28;20073;-80
2022/01/06 05:50:51;;;;;;;16.98;4.13;;;;;;;;;;5028170;28;20099;-81
2022/01/06 05:53:17;;;;;;;13.70;3.65;;;;;;;;;;5028373;28;20149;-81
2022/01/06 05:55:43;;;;;;;11.77;3.40;;;;;;;;;;5011758;28;20044;-80
2022/01/06 05:58:09;;;;;;;11.45;3.08;;;;;;;;;;5029129;28;20053;-80
2022/01/06 06:00:35;;;;;;;9.23;3.47;;;;;;;;;;5012241;28;20465;-80
2022/01/06 06:03:01;;;;;;;17.88;4.25;;;;;;;;;;5009671;28;20045;-81
2022/01/06 06:05:27;;;;;;;15.13;3.95;;;;;;;;;;5029469;28;20046;-80
2022/01/06 06:07:53;;;;;;;19.40;4.07;;;;;;;;;;5027029;28;20049;-80
2022/01/06 06:10:19;;;;;;;13.82;3.83;;;;;;;;;;5010010;28;20111;-80
2022/01/06 06:12:45;;;;;;;16.40;3.42;;;;;;;;;;5012208;28;20041;-81
2022/01/06 06:15:11;;;;;;;15.52;4.07;;;;;;;;;;5012295;28;20080;-80
2022/01/06 06:17:37;;;;;;;12.18;3.92;;;;;;;;;;5009208;28;20049;-80
2022/01/06 06:20:04;;;;;;;16.95;3.70;;;;;;;;;;5027134;28;20049;-81
2022/01/06 06:22:30;;;;;;;24.35;3.78;;;;;;;;;;5010921;28;20053;-80
2022/01/06 06:24:56;;;;;;;18.02;3.97;;;;;;;;;;5010662;28;20374;-80
2022/01/06 06:27:22;;;;;;;17.42;4.18;;;;;;;;;;5011757;28;20396;-80
2022/01/06 06:29:48;;;;;;;16.50;4.00;;;;;;;;;;5021236;28;20657;-80
2022/01/06 06:32:14;;;;;;;11.40;3.70;;;;;;;;;;5011231;28;20128;-80
2022/01/06 06:34:40;;;;;;;17.63;3.67;;;;;;;;;;5012341;28;20136;-80
2022/01/06 06:37:06;;;;;;;10.15;2.80;;;;;;;;;;5028192;28;20116;-80
2022/01/06 06:39:32;;;;;;;14.77;3.47;;;;;;;;;;5011857;28;20392;-80
2022/01/06 06:41:58;;;;;;;13.30;4.25;;;;;;;;;;5023971;28;20041;-80
2022/01/06 06:44:24;;;;;;;14.38;3.67;;;;;;;;;;5027923;28;20050;-80
2022/01/06 06:46:51;;;;;;;18.17;3.85;;;;;;;;;;5025071;28;20135;-80
2022/01/06 06:49:17;;;;;;;12.75;4.53;;;;;;;;;;5025245;28;20053;-80
2022/01/06 06:51:43;;;;;;;14.68;3.65;;;;;;;;;;5023344;28;20041;-79
2022/01/06 06:54:09;;;;;;;13.88;3.70;;;;;;;;;;5028174;28;20044;-79
2022/01/06 06:56:35;;;;;;;14.25;4.07;;;;;;;;;;5024909;28;20418;-80
2022/01/06 06:59:01;;;;;;;14.80;3.45;;;;;;;;;;5027287;28;20041;-80
2022/01/06 07:01:27;;;;;;;13.10;3.53;;;;;;;;;;5009277;28;20038;-80
2022/01/06 07:03:53;;;;;;;16.50;3.60;;;;;;;;;;5030370;28;20444;-81
2022/01/06 07:06:19;;;;;;;18.15;4.00;;;;;;;;;;5027926;28;20048;-80
2022/01/06 07:08:45;;;;;;;15.30;3.75;;;;;;;;;;5004974;28;20049;-78
2022/01/06 07:11:11;;;;;;;16.20;3.65;;;;;;;;;;5011238;28;20052;-80
2022/01/06 07:13:37;;;;;;;16.15;3.53;;;;;;;;;;5028156;28;20042;-80
2022/01/06 07:16:03;;;;;;;14.48;3.83;;;;;;;;;;5012092;28;20224;-80
2022/01/06 07:18:29;;;;;;;16.27;3.80;;;;;;;;;;5025251;28;20124;-80
2022/01/06 07:20:56;;;;;;;17.15;3.90;;;;;;;;;;5027795;28;20045;-80
2022/01/06 07:23:22;;;;;;;14.77;3.95;;;;;;;;;;5028239;28;20041;-80
2022/01/06 07:25:48;;;;;;;14.90;4.07;;;;;;;;;;5028697;28;20053;-80
2022/01/06 07:28:14;;;;;;;11.90;3.22;;;;;;;;;;5013378;28;20142;-80
2022/01/06 07:30:40;;;;;;;10.75;3.20;;;;;;;;;;5011428;28;20122;-80
2022/01/06 07:33:06;;;;;;;11.23;3.20;;;;;;;;;;5039287;28;20083;-81
2022/01/06 07:35:32;;;;;;;11.50;3.33;;;;;;;;;;5045945;28;20053;-81
2022/01/06 07:37:58;;;;;;;8.13;3.10;;;;;;;;;;5030200;28;20489;-81
2022/01/06 07:40:24;;;;;;;13.10;3.42;;;;;;;;;;5031436;28;20041;-81
2022/01/06 07:42:50;;;;;;;8.93;3.20;;;;;;;;;;5048076;28;20045;-81
2022/01/06 07:45:16;;;;;;;11.90;3.22;;;;;;;;;;5030422;28;20171;-81
2022/01/06 07:47:54;;;;;;;10.38;2.85;;;;;;;;;;5048843;28;20049;-81
2022/01/06 07:50:21;;;;;;;10.63;3.30;;;;;;;;;;5048656;28;20079;-80
2022/01/06 07:52:47;;;;;;;12.38;3.30;;;;;;;;;;5045487;28;20572;-81
2022/01/06 07:55:13;;;;;;;10.30;2.88;;;;;;;;;;5044966;28;20164;-81
2022/01/06 07:57:39;;;;;;;13.60;3.88;;;;;;;;;;5048919;28;20091;-81
2022/01/06 08:00:09;;;;;;;15.30;4.30;;;;;;;;;;5032087;28;20094;-81
2022/01/06 08:02:35;;;;;;;11.30;3.75;;;;;;;;;;5046517;28;20071;-80
2022/01/06 08:05:01;;;;;;;11.85;3.80;;;;;;;;;;5029143;28;20041;-81
2022/01/06 08:07:27;;;;;;;16.92;3.40;;;;;;;;;;5049226;28;20043;-81
2022/01/06 08:09:53;;;;;;;10.20;3.50;;;;;;;;;;5030788;28;20037;-81
2022/01/06 08:12:19;;;;;;;13.10;3.40;;;;;;;;;;5049895;28;20053;-81
2022/01/06 08:14:45;;;;;;;13.43;3.55;;;;;;;;;;5045107;28;20033;-81
2022/01/06 08:17:11;;;;;;;26.30;11.45;;;;;;;;;;5045955;28;20073;-80
2022/01/06 08:19:37;;;;;;;42.33;22.80;;;;;;;;;;5049552;28;20065;-80
2022/01/06 08:22:03;;;;;;;37.22;18.38;;;;;;;;;;5047970;28;20550;-80
2022/01/06 08:24:29;;;;;;;35.92;17.33;;;;;;;;;;5029436;28;20044;-81
2022/01/06 08:26:55;;;;;;;33.17;15.40;;;;;;;;;;5050328;28;20040;-80
2022/01/06 08:29:21;;;;;;;26.60;13.68;;;;;;;;;;5033729;28;20052;-81
2022/01/06 08:31:48;;;;;;;19.17;9.35;;;;;;;;;;5051949;28;20048;-81
2022/01/06 08:34:14;;;;;;;17.85;5.85;;;;;;;;;;5051576;28;20069;-80
2022/01/06 08:36:40;;;;;;;12.15;5.15;;;;;;;;;;5038098;28;20494;-80
2022/01/06 08:39:09;;;;;;;11.68;4.00;;;;;;;;;;5049671;28;20045;-81
2022/01/06 08:41:35;;;;;;;11.68;3.97;;;;;;;;;;5050333;28;20053;-81
2022/01/06 08:44:01;;;;;;;26.52;12.90;;;;;;;;;;5051479;28;20163;-80
2022/01/06 08:46:27;;;;;;;19.23;5.70;;;;;;;;;;5047144;28;20087;-80
2022/01/06 08:48:53;;;;;;;19.13;3.97;;;;;;;;;;5049439;28;20654;-81
2022/01/06 08:51:20;;;;;;;14.90;4.13;;;;;;;;;;5047798;28;20045;-81
2022/01/06 08:53:46;;;;;;;11.45;3.45;;;;;;;;;;5051628;28;20493;-81
2022/01/06 08:56:12;;;;;;;10.57;3.72;;;;;;;;;;5034188;28;20071;-81
2022/01/06 08:58:38;;;;;;;13.02;4.07;;;;;;;;;;5050309;28;20053;-81
2022/01/06 09:01:04;;;;;;;15.00;4.28;;;;;;;;;;5052024;28;20044;-81
2022/01/06 09:03:30;;;;;;;23.75;5.30;;;;;;;;;;5048449;28;20467;-80
2022/01/06 09:05:56;;;;;;;16.35;5.40;;;;;;;;;;5047145;28;20041;-79
2022/01/06 09:08:22;;;;;;;13.45;4.97;;;;;;;;;;5050277;28;20033;-80
2022/01/06 09:10:48;;;;;;;20.63;6.65;;;;;;;;;;5047530;28;20216;-80
2022/01/06 09:13:14;;;;;;;21.42;6.93;;;;;;;;;;5048864;28;20551;-79
2022/01/06 09:15:40;;;;;;;18.25;5.75;;;;;;;;;;5049283;28;20040;-79
2022/01/06 09:18:07;;;;;;;19.95;5.22;;;;;;;;;;5051678;28;20076;-79
2022/01/06 09:20:33;;;;;;;16.95;3.95;;;;;;;;;;5047029;28;20051;-80
2022/01/06 09:23:00;;;;;;;16.33;3.92;;;;;;;;;;5049638;28;20041;-79
2022/01/06 09:25:26;;;;;;;20.85;3.72;;;;;;;;;;5050935;28;20053;-79
2022/01/06 09:27:54;;;;;;;12.13;3.88;;;;;;;;;;5050180;28;20094;-79
2022/01/06 09:30:23;;;;;;;18.63;4.72;;;;;;;;;;5047990;28;20049;-80
2022/01/06 09:32:49;;;;;;;15.15;5.40;;;;;;;;;;5047587;28;20057;-80
2022/01/06 09:35:15;;;;;;;19.40;4.50;;;;;;;;;;5049613;28;20451;-80
2022/01/06 09:37:41;;;;;;;19.55;4.07;;;;;;;;;;5051988;28;20045;-80
2022/01/06 09:40:09;;;;;;;16.23;4.18;;;;;;;;;;5046753;28;20049;-80
2022/01/06 09:42:35;;;;;;;15.00;3.50;;;;;;;;;;5031852;28;20064;-77
2022/01/06 09:45:01;;;;;;;13.07;3.10;;;;;;;;;;5047023;28;21329;-80
2022/01/06 09:47:28;;;;;;;11.93;5.00;;;;;;;;;;5049527;28;20439;-80
2022/01/06 09:49:54;;;;;;;8.35;2.45;;;;;;;;;;5033201;28;20040;-80
2022/01/06 09:52:21;;;;;;;9.07;2.35;;;;;;;;;;5047778;28;20037;-80
2022/01/06 09:54:47;;;;;;;9.00;2.70;;;;;;;;;;5029921;28;20769;-80
2022/01/06 09:57:14;;;;;;;9.52;2.55;;;;;;;;;;5054073;28;20040;-80
2022/01/06 09:59:44;;;;;;;10.23;2.30;;;;;;;;;;5048130;28;20045;-80
2022/01/06 10:02:16;;;;;;;5.90;1.90;;;;;;;;;;5047532;28;20047;-81
2022/01/06 10:04:47;;;;;;;9.40;2.20;;;;;;;;;;5044957;28;20033;-80
2022/01/06 10:07:15;;;;;;;13.15;2.28;;;;;;;;;;5050547;28;20498;-80
2022/01/06 10:09:41;;;;;;;9.60;2.45;;;;;;;;;;5045517;28;20090;-80
2022/01/06 10:12:10;;;;;;;7.88;2.15;;;;;;;;;;5032483;28;20119;-80
2022/01/06 10:14:43;;;;;;;7.70;2.40;;;;;;;;;;5043189;28;20045;-80
2022/01/06 10:17:14;;;;;;;5.75;2.30;;;;;;;;;;5027120;28;20484;-81
2022/01/06 10:19:46;;;;;;;6.07;2.63;;;;;;;;;;5046833;28;20076;-81
2022/01/06 10:22:14;;;;;;;9.70;2.30;;;;;;;;;;5047556;28;20496;-81
2022/01/06 10:24:42;;;;;;;6.25;3.00;;;;;;;;;;5047030;28;20045;-81
2022/01/06 10:27:09;;;;;;;11.25;2.80;;;;;;;;;;5046960;28;20049;-80
2022/01/06 10:29:43;;;;;;;9.30;2.78;;;;;;;;;;5045563;28;20496;-81
2022/01/06 10:32:11;;;;;;;9.48;2.67;;;;;;;;;;5049426;28;20094;-80
2022/01/06 10:34:41;;;;;;;11.18;2.88;;;;;;;;;;5050637;28;20049;-81
2022/01/06 10:37:19;;;;;;;14.57;3.05;;;;;;;;;;5044808;28;20045;-81
2022/01/06 10:39:45;;;;;;;11.07;2.88;;;;;;;;;;5021687;28;20374;-81
2022/01/06 10:42:12;;;;;;;10.13;2.65;;;;;;;;;;5045230;28;20052;-80
2022/01/06 10:44:50;;;;;;;9.25;3.05;;;;;;;;;;5030319;28;20072;-80
2022/01/06 10:47:29;;;;;;;13.10;2.95;;;;;;;;;;5053389;28;20049;-80
2022/01/06 10:50:06;;;;;;;8.88;3.13;;;;;;;;;;5045271;28;20041;-80
2022/01/06 10:52:32;;;;;;;6.53;2.60;;;;;;;;;;5049380;28;20072;-80
2022/01/06 10:55:08;;;;;;;10.73;2.50;;;;;;;;;;5029995;28;20081;-81
2022/01/06 10:57:34;;;;;;;9.35;2.50;;;;;;;;;;5032748;28;20033;-81
2022/01/06 11:00:00;;;;;;;5.55;2.58;;;;;;;;;;5028458;28;20116;-81
2022/01/06 11:02:26;;;;;;;9.00;2.60;;;;;;;;;;5047871;28;20164;-80
2022/01/06 11:04:52;;;;;;;9.60;2.70;;;;;;;;;;5028696;28;20045;-81
2022/01/06 11:07:18;;;;;;;10.77;2.47;;;;;;;;;;5048722;28;20107;-81
2022/01/06 11:09:48;;;;;;;10.63;2.70;;;;;;;;;;5049716;28;20064;-81
2022/01/06 11:12:26;;;;;;;6.07;2.05;;;;;;;;;;5047600;28;20037;-81
2022/01/06 11:14:53;;;;;;;6.93;2.20;;;;;;;;;;5022993;28;20439;-81
2022/01/06 11:17:21;;;;;;;4.72;2.00;;;;;;;;;;5043722;28;20045;-82
2022/01/06 11:19:49;;;;;;;12.40;6.13;;;;;;;;;;5047991;28;20037;-80
2022/01/06 11:22:15;;;;;;;5.88;2.72;;;;;;;;;;5045848;28;21054;-81
2022/01/06 11:24:52;;;;;;;10.32;2.72;;;;;;;;;;5048218;28;20037;-74
2022/01/06 11:27:18;;;;;;;6.32;2.45;;;;;;;;;;5048212;28;20045;-81
2022/01/06 11:29:44;;;;;;;7.47;2.28;;;;;;;;;;5046706;28;20052;-81
2022/01/06 11:32:19;;;;;;;9.63;2.10;;;;;;;;;;5043860;28;20422;-81
2022/01/06 11:34:45;;;;;;;5.40;1.88;;;;;;;;;;5046707;28;20052;-81
2022/01/06 11:37:12;;;;;;;4.20;1.90;;;;;;;;;;5047170;28;20041;-81
2022/01/06 11:39:41;;;;;;;6.20;2.10;;;;;;;;;;5049395;28;20033;-82
2022/01/06 11:42:25;;;;;;;5.90;1.90;;;;;;;;;;5051810;28;20081;-81
2022/01/06 11:44:52;;;;;;;6.18;1.95;;;;;;;;;;5049302;28;20045;-80
2022/01/06 11:47:28;;;;;;;3.03;1.77;;;;;;;;;;5042281;28;20040;-80
2022/01/06 11:50:09;;;;;;;4.40;2.38;;;;;;;;;;5028494;28;20041;-81
2022/01/06 11:52:36;;;;;;;5.63;1.85;;;;;;;;;;5043531;28;20041;-80
2022/01/06 11:55:03;;;;;;;6.38;2.00;;;;;;;;;;5033353;28;20511;-80
2022/01/06 11:57:37;;;;;;;7.50;2.00;;;;;;;;;;5036334;28;20098;-80
2022/01/06 12:00:18;;;;;;;6.03;2.25;;;;;;;;;;5034476;28;20059;-80
2022/01/06 12:02:45;;;;;;;6.97;2.10;;;;;;;;;;5046022;28;20113;-80
2022/01/06 12:05:12;;;;;;;7.53;2.08;;;;;;;;;;5025869;28;20053;-80
2022/01/06 12:07:49;;;;;;;5.95;2.13;;;;;;;;;;5042909;28;20064;-79
2022/01/06 12:10:15;;;;;;;6.78;2.08;;;;;;;;;;5042543;28;20184;-80
2022/01/06 12:12:41;;;;;;;6.22;1.90;;;;;;;;;;5027678;28;20041;-80
2022/01/06 12:15:15;;;;;;;7.30;1.90;;;;;;;;;;5036710;28;20473;-80
2022/01/06 12:17:45;;;;;;;8.90;2.97;;;;;;;;;;5040989;28;20094;-80
2022/01/06 12:20:11;;;;;;;6.75;2.15;;;;;;;;;;5028331;28;20045;-80
2022/01/06 12:22:37;;;;;;;9.02;2.72;;;;;;;;;;5044956;28;20056;-80
2022/01/06 12:25:05;;;;;;;9.63;2.00;;;;;;;;;;5042639;28;20037;-80
2022/01/06 12:27:31;;;;;;;9.48;2.08;;;;;;;;;;5052996;28;20067;-80
2022/01/06 12:29:57;;;;;;;8.27;2.35;;;;;;;;;;5046127;28;20065;-79
2022/01/06 12:32:24;;;;;;;7.55;2.13;;;;;;;;;;5056734;28;20037;-78
2022/01/06 12:34:54;;;;;;;5.55;2.15;;;;;;;;;;5051252;28;20496;-77
2022/01/06 12:37:30;;;;;;;10.05;2.60;;;;;;;;;;5028207;28;20388;-77
2022/01/06 12:39:57;;;;;;;6.05;2.10;;;;;;;;;;5024976;28;20064;-77
2022/01/06 12:42:24;;;;;;;9.55;2.33;;;;;;;;;;5025088;28;20763;-77
2022/01/06 12:44:51;;;;;;;7.57;2.03;;;;;;;;;;5046964;28;20164;-77
2022/01/06 12:47:17;;;;;;;8.88;2.30;;;;;;;;;;5052274;28;20045;-77
2022/01/06 12:49:43;;;;;;;10.32;2.70;;;;;;;;;;5025348;28;20412;-78
2022/01/06 12:52:09;;;;;;;7.68;2.53;;;;;;;;;;5029427;28;20132;-76
2022/01/06 12:54:37;;;;;;;8.88;2.60;;;;;;;;;;5047543;28;20037;-78
2022/01/06 12:57:06;;;;;;;8.90;2.30;;;;;;;;;;5050535;28;20037;-77
2022/01/06 12:59:34;;;;;;;6.95;2.55;;;;;;;;;;5033454;28;20546;-78
2022/01/06 13:02:02;;;;;;;3.95;2.50;;;;;;;;;;5030640;28;20112;-77
2022/01/06 13:04:29;;;;;;;8.80;2.22;;;;;;;;;;5029131;28;20059;-77
2022/01/06 13:06:56;;;;;;;6.82;2.58;;;;;;;;;;5035730;28;20064;-78
2022/01/06 13:09:23;;;;;;;8.02;2.60;;;;;;;;;;5024861;28;20041;-78
2022/01/06 13:11:53;;;;;;;8.27;3.00;;;;;;;;;;5050382;28;20578;-78
2022/01/06 13:14:38;;;;;;;4.57;2.17;;;;;;;;;;5048515;28;20049;-77
2022/01/06 13:17:05;;;;;;;5.78;2.35;;;;;;;;;;5046262;28;20047;-79
2022/01/06 13:19:32;;;;;;;6.35;2.00;;;;;;;;;;5033132;28;20041;-79
2022/01/06 13:25:25;;;;;;;6.28;2.22;;;;;;;;;;5003877;22;20108;-80
2022/01/06 13:27:53;;;;;;;4.00;1.88;;;;;;;;;;4996140;28;20076;-79
2022/01/06 13:30:29;;;;;;;6.28;3.28;;;;;;;;;;4992480;28;20043;-79
2022/01/06 13:32:55;;;;;;;5.25;1.80;;;;;;;;;;4966841;28;20108;-77
2022/01/06 13:35:21;;;;;;;5.75;1.63;;;;;;;;;;4968990;28;20406;-77
2022/01/06 13:37:47;;;;;;;3.72;1.73;;;;;;;;;;4972010;28;20046;-77
2022/01/06 13:40:15;;;;;;;5.22;1.77;;;;;;;;;;4972425;28;20085;-78
2022/01/06 13:42:46;;;;;;;6.05;1.70;;;;;;;;;;4966683;28;20486;-78
2022/01/06 13:45:27;;;;;;;5.30;1.95;;;;;;;;;;4985339;28;20057;-78
2022/01/06 13:48:02;;;;;;;6.00;2.28;;;;;;;;;;4958231;28;20046;-80
2022/01/06 13:53:20;;;;;;;5.30;2.15;;;;;;;;;;4982292;28;20133;-79
2022/01/06 13:56:07;;;;;;;6.32;2.03;;;;;;;;;;4962688;28;20042;-77
2022/01/06 13:58:34;;;;;;;6.13;1.92;;;;;;;;;;4981146;28;20078;-77
2022/01/06 14:01:02;;;;;;;5.95;2.15;;;;;;;;;;4990225;28;20212;-77
2022/01/06 14:03:31;;;;;;;3.88;1.75;;;;;;;;;;4980681;28;20057;-78
2022/01/06 14:06:02;;;;;;;4.15;1.80;;;;;;;;;;4960384;28;20053;-78
2022/01/06 14:08:29;;;;;;;6.55;1.77;;;;;;;;;;4966241;28;20062;-78
2022/01/06 14:10:55;;;;;;;6.53;1.80;;;;;;;;;;4966140;28;20502;-77
2022/01/06 14:13:21;;;;;;;3.60;1.83;;;;;;;;;;4966996;28;20046;-77
2022/01/06 14:15:47;;;;;;;5.68;1.73;;;;;;;;;;4982498;28;20200;-80
2022/01/06 14:18:14;;;;;;;6.10;2.10;;;;;;;;;;4970417;28;20054;-79
2022/01/06 14:20:40;;;;;;;3.90;1.60;;;;;;;;;;4970371;28;20050;-79
2022/01/06 14:23:06;;;;;;;7.15;1.90;;;;;;;;;;4980755;28;20054;-80
2022/01/06 14:25:32;;;;;;;4.22;1.70;;;;;;;;;;5020942;28;20075;-79
2022/01/06 14:27:58;;;;;;;4.40;1.50;;;;;;;;;;5005678;28;20128;-79
2022/01/06 14:30:24;;;;;;;3.75;1.80;;;;;;;;;;5016374;28;20548;-80
2022/01/06 14:32:50;;;;;;;4.15;1.70;;;;;;;;;;5022770;28;20054;-79
2022/01/06 14:35:16;;;;;;;4.78;1.70;;;;;;;;;;5021737;28;20076;-79
2022/01/06 14:37:43;;;;;;;3.35;1.48;;;;;;;;;;5021090;28;20087;-79
2022/01/06 14:40:09;;;;;;;7.10;2.45;;;;;;;;;;5007834;28;20103;-79
2022/01/06 14:42:35;;;;;;;8.38;3.30;;;;;;;;;;5027290;28;20054;-79
2022/01/06 14:45:01;;;;;;;7.32;3.20;;;;;;;;;;5003576;28;20038;-79
2022/01/06 14:47:27;;;;;;;6.13;3.03;;;;;;;;;;5006114;28;20041;-80
2022/01/06 14:49:53;;;;;;;6.60;2.70;;;;;;;;;;5003840;28;20042;-79